Time;durP1;ratioP1;P1;durP2;ratioP2;P2;SDS_P1;SDS_P2;PMS_P1;PMS_P2;Temp;Humidity;BMP_temperature;BMP_pressure;BME280_temperature;BME280_humidity;BME280_pressure;Samples;Min_cycle;Max_cycle;Signal;HPM_P1;HPM_P2
2020/12/28 00:00:49;;;;;;;28.20;19.10;;;3.90;99.90;;;;;;5076358;28;39356;-80
2020/12/28 00:03:15;;;;;;;29.30;20.60;;;3.90;99.90;;;;;;5072767;28;39841;-80
2020/12/28 00:05:41;;;;;;;32.00;19.20;;;3.90;99.90;;;;;;5064306;28;38648;-80
2020/12/28 00:08:07;;;;;;;31.83;20.77;;;3.90;99.90;;;;;;5069428;28;37917;-79
2020/12/28 00:10:33;;;;;;;30.37;18.70;;;3.80;99.90;;;;;;5067023;28;39252;-79
2020/12/28 00:13:02;;;;;;;30.20;19.97;;;3.80;99.90;;;;;;5088656;28;37423;-79
2020/12/28 00:15:29;;;;;;;31.13;18.77;;;3.70;99.90;;;;;;5085432;28;48124;-80
2020/12/28 00:17:58;;;;;;;30.27;20.43;;;3.60;99.90;;;;;;5068772;28;38528;-79
2020/12/28 00:20:27;;;;;;;27.20;17.57;;;3.50;99.90;;;;;;5061373;28;37566;-80
2020/12/28 00:22:53;;;;;;;29.03;18.63;;;3.50;99.90;;;;;;5070439;28;37765;-80
2020/12/28 00:25:24;;;;;;;31.50;18.93;;;3.50;99.90;;;;;;5070264;28;38509;-80
2020/12/28 00:27:51;;;;;;;28.63;18.50;;;3.60;99.90;;;;;;5067474;28;36365;-79
2020/12/28 00:30:18;;;;;;;31.77;19.60;;;3.50;99.90;;;;;;5062847;28;37840;-79
2020/12/28 00:32:44;;;;;;;32.10;20.77;;;3.40;99.90;;;;;;5067746;28;38108;-80
2020/12/28 00:35:11;;;;;;;35.33;22.87;;;3.50;99.90;;;;;;5081037;27;39022;-78
2020/12/28 00:37:38;;;;;;;43.10;26.47;;;3.50;99.90;;;;;;5070293;28;38290;-78
2020/12/28 00:40:06;;;;;;;42.97;24.90;;;3.50;99.90;;;;;;5068586;28;41465;-78
2020/12/28 00:42:33;;;;;;;40.37;25.30;;;3.50;99.90;;;;;;5066450;28;37890;-78
2020/12/28 00:45:00;;;;;;;34.70;24.23;;;3.50;99.90;;;;;;5067321;28;38272;-78
2020/12/28 00:47:26;;;;;;;50.27;28.83;;;3.50;99.90;;;;;;5069018;28;37709;-79
2020/12/28 00:49:53;;;;;;;49.47;28.77;;;3.50;99.90;;;;;;5065920;28;36627;-78
2020/12/28 00:52:19;;;;;;;40.80;27.03;;;3.50;99.90;;;;;;5069815;28;38463;-79
2020/12/28 00:54:45;;;;;;;51.47;30.47;;;3.60;99.90;;;;;;5066236;28;39276;-78
2020/12/28 00:57:11;;;;;;;52.67;29.77;;;3.80;99.90;;;;;;5067085;28;37524;-79
2020/12/28 00:59:37;;;;;;;53.63;31.17;;;3.80;99.90;;;;;;5070810;28;39278;-78
2020/12/28 01:02:04;;;;;;;58.43;32.67;;;3.80;99.90;;;;;;5069091;28;38911;-78
2020/12/28 01:04:30;;;;;;;58.73;33.10;;;3.90;99.90;;;;;;5065151;28;37758;-78
2020/12/28 01:06:56;;;;;;;54.20;34.27;;;3.90;99.90;;;;;;5083527;28;37311;-78
2020/12/28 01:09:22;;;;;;;56.47;35.30;;;3.90;99.90;;;;;;5067922;28;38106;-78
2020/12/28 01:11:48;;;;;;;69.77;36.63;;;3.90;99.90;;;;;;5084095;28;38464;-78
2020/12/28 01:14:14;;;;;;;79.03;40.43;;;4.00;99.90;;;;;;5064154;28;38655;-78
2020/12/28 01:16:43;;;;;;;88.83;44.13;;;4.00;99.90;;;;;;5072040;28;37928;-79
2020/12/28 01:19:12;;;;;;;75.23;40.40;;;4.00;99.90;;;;;;5066158;28;40355;-78
2020/12/28 01:21:39;;;;;;;83.93;43.83;;;4.00;99.90;;;;;;5072953;28;39500;-79
2020/12/28 01:24:05;;;;;;;93.23;46.30;;;4.00;99.90;;;;;;5071243;28;37564;-78
2020/12/28 01:26:31;;;;;;;95.50;47.07;;;4.00;99.90;;;;;;5071241;28;36691;-78
2020/12/28 01:28:58;;;;;;;107.53;48.97;;;4.10;99.90;;;;;;5054819;28;38386;-79
2020/12/28 01:31:24;;;;;;;89.37;47.13;;;4.10;99.90;;;;;;5087700;28;39557;-78
2020/12/28 01:33:50;;;;;;;89.93;46.00;;;4.10;99.90;;;;;;5065149;28;38038;-78
2020/12/28 01:36:17;;;;;;;91.63;48.53;;;4.10;99.90;;;;;;5067660;28;36594;-79
2020/12/28 01:38:43;;;;;;;87.27;46.20;;;4.10;99.90;;;;;;5068454;28;38672;-79
2020/12/28 01:41:10;;;;;;;97.57;47.83;;;4.10;99.90;;;;;;5071606;28;38002;-79
2020/12/28 01:43:36;;;;;;;72.53;41.17;;;4.10;99.90;;;;;;5068781;28;38203;-78
2020/12/28 01:46:03;;;;;;;95.97;48.83;;;4.10;99.90;;;;;;5069256;28;36734;-78
2020/12/28 01:48:33;;;;;;;109.10;48.87;;;4.10;99.90;;;;;;5066933;28;38419;-79
2020/12/28 01:50:59;;;;;;;95.77;47.73;;;4.10;99.90;;;;;;5069913;28;39656;-78
2020/12/28 01:53:26;;;;;;;72.70;41.27;;;4.10;99.90;;;;;;5068886;28;38830;-78
2020/12/28 01:56:00;;;;;;;89.60;43.97;;;4.20;99.90;;;;;;5074173;28;37270;-78
2020/12/28 01:58:29;;;;;;;73.30;41.30;;;4.20;99.90;;;;;;5066197;28;37898;-79
2020/12/28 02:00:57;;;;;;;77.17;43.17;;;4.20;99.90;;;;;;5061284;28;39577;-78
2020/12/28 02:03:24;;;;;;;88.00;44.00;;;4.10;99.90;;;;;;5068835;28;37791;-79
2020/12/28 02:05:50;;;;;;;77.33;42.37;;;4.10;99.90;;;;;;5069964;28;38178;-78
2020/12/28 02:08:16;;;;;;;60.43;35.47;;;4.00;99.90;;;;;;5068028;28;39784;-78
2020/12/28 02:10:42;;;;;;;79.37;42.67;;;4.00;99.90;;;;;;5092332;28;37679;-79
2020/12/28 02:13:09;;;;;;;69.60;39.33;;;3.90;99.90;;;;;;5061222;28;38320;-78
2020/12/28 02:15:37;;;;;;;70.57;40.50;;;3.80;99.90;;;;;;5081617;28;37989;-78
2020/12/28 02:18:07;;;;;;;72.00;38.50;;;3.80;99.90;;;;;;5067591;28;40845;-79
2020/12/28 02:20:33;;;;;;;89.63;42.13;;;3.70;99.90;;;;;;5068221;28;39542;-78
2020/12/28 02:22:59;;;;;;;101.57;46.90;;;3.80;99.90;;;;;;5065154;28;37828;-78
2020/12/28 02:25:25;;;;;;;76.27;39.20;;;3.60;99.90;;;;;;5064982;28;36422;-79
2020/12/28 02:27:51;;;;;;;81.43;42.03;;;3.70;99.90;;;;;;5082513;28;37961;-78
2020/12/28 02:30:17;;;;;;;83.03;41.97;;;3.70;99.90;;;;;;5053863;28;39901;-78
2020/12/28 02:32:44;;;;;;;91.93;44.07;;;3.80;99.90;;;;;;5068218;28;39779;-78
2020/12/28 02:35:10;;;;;;;70.83;38.93;;;3.80;99.90;;;;;;5064796;28;37520;-78
2020/12/28 02:37:42;;;;;;;82.63;41.43;;;3.80;99.90;;;;;;5069115;28;39829;-78
2020/12/28 02:40:08;;;;;;;78.63;38.90;;;3.80;99.90;;;;;;5067464;28;38660;-78
2020/12/28 02:42:34;;;;;;;79.50;38.57;;;3.90;99.90;;;;;;5066355;28;39469;-78
2020/12/28 02:45:01;;;;;;;64.53;35.33;;;3.90;99.90;;;;;;5064512;28;37420;-78
2020/12/28 02:47:27;;;;;;;71.80;33.93;;;3.90;99.90;;;;;;5070603;28;40128;-78
2020/12/28 02:49:53;;;;;;;58.23;31.50;;;3.90;99.90;;;;;;5072475;27;40011;-79
2020/12/28 02:52:19;;;;;;;66.37;35.53;;;4.00;99.90;;;;;;5062727;28;39705;-79
2020/12/28 02:54:45;;;;;;;69.77;35.50;;;4.00;99.90;;;;;;5070236;28;38117;-79
2020/12/28 02:57:11;;;;;;;62.80;32.93;;;4.00;99.90;;;;;;5071393;28;38703;-78
2020/12/28 02:59:37;;;;;;;83.23;37.60;;;4.00;99.90;;;;;;5067728;28;38772;-78
2020/12/28 03:02:03;;;;;;;87.67;38.33;;;4.00;99.90;;;;;;5073112;28;38953;-78
2020/12/28 03:04:29;;;;;;;77.60;35.40;;;4.00;99.90;;;;;;5063917;28;38082;-79
2020/12/28 03:06:56;;;;;;;79.00;35.50;;;4.10;99.90;;;;;;5074053;28;38448;-78
2020/12/28 03:09:22;;;;;;;91.37;39.60;;;4.10;99.90;;;;;;5069518;28;40431;-79
2020/12/28 03:11:48;;;;;;;65.50;33.77;;;4.10;99.90;;;;;;5068714;28;38585;-78
2020/12/28 03:14:14;;;;;;;63.43;33.37;;;4.10;99.90;;;;;;5066574;28;37493;-78
2020/12/28 03:16:42;;;;;;;78.67;37.17;;;4.10;99.90;;;;;;5074154;28;38884;-79
2020/12/28 03:19:08;;;;;;;74.27;35.80;;;4.20;99.90;;;;;;5068566;28;39697;-78
2020/12/28 03:21:34;;;;;;;77.87;36.17;;;4.10;99.90;;;;;;5067793;28;38191;-78
2020/12/28 03:24:07;;;;;;;66.30;33.23;;;4.10;99.90;;;;;;5074403;28;38630;-79
2020/12/28 03:26:33;;;;;;;63.42;33.15;;;4.10;99.90;;;;;;5087771;28;47984;-78
2020/12/28 03:28:59;;;;;;;59.30;34.43;;;4.10;99.90;;;;;;5071465;28;37472;-78
2020/12/28 03:31:28;;;;;;;88.33;40.03;;;4.10;99.90;;;;;;5070527;28;38748;-78
2020/12/28 03:34:03;;;;;;;84.67;37.57;;;4.10;99.90;;;;;;5065117;28;40060;-78
2020/12/28 03:36:35;;;;;;;82.07;37.10;;;4.10;99.90;;;;;;5062194;28;46796;-79
2020/12/28 03:39:01;;;;;;;58.05;31.50;;;4.00;99.90;;;;;;5068400;28;37665;-78
2020/12/28 03:41:27;;;;;;;55.93;31.00;;;4.00;99.90;;;;;;5064967;28;47636;-78
2020/12/28 03:43:54;;;;;;;70.87;33.27;;;4.00;99.90;;;;;;5066706;28;37637;-78
2020/12/28 03:46:23;;;;;;;63.77;32.73;;;3.90;99.90;;;;;;5060853;28;40540;-78
2020/12/28 03:48:49;;;;;;;56.67;30.90;;;3.90;99.90;;;;;;5072201;28;38891;-78
2020/12/28 03:51:15;;;;;;;68.97;33.47;;;3.90;99.90;;;;;;5063866;28;38422;-78
2020/12/28 03:53:41;;;;;;;55.77;27.17;;;3.90;99.90;;;;;;5066970;28;37373;-78
2020/12/28 03:56:07;;;;;;;65.97;31.40;;;3.80;99.90;;;;;;5071545;28;38689;-78
2020/12/28 03:58:39;;;;;;;49.30;26.50;;;3.80;99.90;;;;;;5067313;28;39141;-78
2020/12/28 04:01:10;;;;;;;43.80;24.47;;;3.80;99.90;;;;;;5065117;28;20053;-78
2020/12/28 04:03:39;;;;;;;66.30;30.90;;;3.80;99.90;;;;;;5068097;27;37224;-79
2020/12/28 04:06:08;;;;;;;67.43;31.93;;;3.80;99.90;;;;;;5065641;28;39986;-79
2020/12/28 04:08:37;;;;;;;54.53;29.60;;;3.80;99.90;;;;;;5067092;28;39203;-79
2020/12/28 04:11:03;;;;;;;63.10;32.60;;;3.70;99.90;;;;;;5065015;28;41088;-78
2020/12/28 04:13:29;;;;;;;55.50;28.80;;;3.60;99.90;;;;;;5065768;28;47071;-78
2020/12/28 04:15:57;;;;;;;57.00;31.87;;;3.60;99.90;;;;;;5066729;28;38966;-78
2020/12/28 04:18:23;;;;;;;56.00;29.03;;;3.50;99.90;;;;;;5083293;28;38973;-78
2020/12/28 04:20:49;;;;;;;55.33;29.07;;;3.50;99.90;;;;;;5061633;28;38866;-78
2020/12/28 04:23:21;;;;;;;76.37;38.63;;;3.40;99.90;;;;;;5077276;28;38626;-78
2020/12/28 04:25:47;;;;;;;68.13;37.07;;;3.40;99.90;;;;;;5086901;28;37419;-78
2020/12/28 04:28:13;;;;;;;90.03;39.67;;;3.40;99.90;;;;;;5069915;28;38832;-78
2020/12/28 04:30:45;;;;;;;81.77;39.30;;;3.30;99.90;;;;;;5083423;28;39030;-78
2020/12/28 04:33:11;;;;;;;59.70;34.70;;;3.30;99.90;;;;;;5060443;27;37046;-78
2020/12/28 04:35:40;;;;;;;82.77;38.47;;;3.30;99.90;;;;;;5066777;28;37897;-79
2020/12/28 04:38:08;;;;;;;56.67;32.80;;;3.30;99.90;;;;;;5072393;28;39841;-79
2020/12/28 04:40:34;;;;;;;68.53;35.07;;;3.30;99.90;;;;;;5064992;28;39291;-78
2020/12/28 04:43:02;;;;;;;64.70;35.47;;;3.30;99.90;;;;;;5066682;28;37310;-78
2020/12/28 04:45:33;;;;;;;70.97;37.33;;;3.20;99.90;;;;;;5056314;28;47222;-78
2020/12/28 04:47:59;;;;;;;112.30;45.07;;;3.20;99.90;;;;;;5071931;28;39370;-78
2020/12/28 04:50:26;;;;;;;71.60;36.67;;;3.10;99.90;;;;;;5066577;28;39633;-78
2020/12/28 04:52:54;;;;;;;60.20;34.80;;;3.00;99.90;;;;;;5055819;28;36652;-78
2020/12/28 04:55:20;;;;;;;52.77;32.63;;;3.00;99.90;;;;;;5064582;28;37689;-78
2020/12/28 04:57:49;;;;;;;58.50;32.43;;;3.10;99.90;;;;;;5060089;28;37758;-78
2020/12/28 05:00:20;;;;;;;107.33;43.73;;;3.00;99.90;;;;;;5073254;28;38970;-78
2020/12/28 05:02:55;;;;;;;61.27;34.13;;;2.90;99.90;;;;;;5068459;28;36920;-78
2020/12/28 05:05:24;;;;;;;84.77;40.07;;;2.80;99.90;;;;;;5055159;28;39191;-78
2020/12/28 05:07:51;;;;;;;57.07;31.87;;;2.70;99.90;;;;;;5056447;28;37891;-78
2020/12/28 05:10:25;;;;;;;69.70;34.77;;;2.80;99.90;;;;;;5066508;27;39523;-78
2020/12/28 05:12:51;;;;;;;70.73;35.53;;;2.70;99.90;;;;;;5064700;28;38357;-78
2020/12/28 05:15:20;;;;;;;60.10;35.00;;;2.70;99.90;;;;;;5068442;28;38537;-79
2020/12/28 05:17:54;;;;;;;85.73;39.47;;;2.70;99.90;;;;;;5070131;28;39057;-79
2020/12/28 05:20:25;;;;;;;68.00;37.13;;;2.80;99.90;;;;;;5076963;28;38661;-78
2020/12/28 05:22:52;;;;;;;73.93;36.87;;;2.80;99.90;;;;;;5070329;28;37436;-78
2020/12/28 05:25:20;;;;;;;129.00;47.70;;;3.00;99.90;;;;;;5062672;28;39433;-78
2020/12/28 05:27:53;;;;;;;63.03;35.17;;;3.00;99.90;;;;;;5067124;28;39315;-78
2020/12/28 05:30:24;;;;;;;62.13;34.83;;;3.10;99.90;;;;;;5065799;28;38575;-79
2020/12/28 05:32:50;;;;;;;69.23;36.50;;;3.10;99.90;;;;;;5065840;28;37885;-78
2020/12/28 05:35:16;;;;;;;78.97;40.33;;;3.10;99.90;;;;;;5068180;28;38782;-78
2020/12/28 05:37:46;;;;;;;73.90;37.50;;;3.20;99.90;;;;;;5072406;28;39605;-78
2020/12/28 05:40:13;;;;;;;98.23;45.13;;;3.20;99.90;;;;;;5064055;28;37273;-79
2020/12/28 05:42:50;;;;;;;97.17;42.20;;;3.30;99.90;;;;;;5067350;28;37070;-79
2020/12/28 05:45:17;;;;;;;86.00;41.17;;;3.30;99.90;;;;;;5061417;28;38935;-79
2020/12/28 05:47:57;;;;;;;94.13;43.83;;;3.30;99.90;;;;;;5073712;28;38367;-79
2020/12/28 05:50:31;;;;;;;99.93;43.17;;;3.30;99.90;;;;;;5079385;28;39706;-79
2020/12/28 05:52:59;;;;;;;125.10;49.30;;;3.30;99.90;;;;;;5067939;28;36693;-79
2020/12/28 05:55:28;;;;;;;138.70;51.87;;;3.30;99.90;;;;;;5061099;28;39997;-80
2020/12/28 05:57:55;;;;;;;117.87;48.53;;;3.40;99.90;;;;;;5061859;28;39465;-79
2020/12/28 06:00:22;;;;;;;119.80;49.60;;;3.40;99.90;;;;;;5067230;28;38821;-78
2020/12/28 06:02:48;;;;;;;163.67;55.90;;;3.40;99.90;;;;;;5068579;28;38026;-80
2020/12/28 06:05:16;;;;;;;126.70;49.07;;;3.40;99.90;;;;;;5065709;28;38254;-79
2020/12/28 06:07:43;;;;;;;110.30;47.13;;;3.40;99.90;;;;;;5071917;28;38897;-79
2020/12/28 06:10:11;;;;;;;106.77;45.47;;;3.50;99.90;;;;;;5071416;28;37903;-79
2020/12/28 06:12:38;;;;;;;111.10;46.57;;;3.50;99.90;;;;;;5071154;28;38490;-79
2020/12/28 06:15:22;;;;;;;98.27;43.43;;;3.50;99.90;;;;;;5075437;28;38165;-79
2020/12/28 06:17:48;;;;;;;99.43;41.57;;;3.50;99.90;;;;;;5070386;28;39619;-79
2020/12/28 06:20:15;;;;;;;85.53;41.67;;;3.60;99.90;;;;;;5070912;28;40114;-79
2020/12/28 06:22:51;;;;;;;77.93;37.10;;;3.60;99.90;;;;;;5072470;28;36879;-79
2020/12/28 06:25:17;;;;;;;71.03;36.20;;;3.60;99.90;;;;;;5078201;28;37638;-80
2020/12/28 06:27:45;;;;;;;70.43;35.90;;;3.70;99.90;;;;;;5087415;28;38323;-79
2020/12/28 06:30:16;;;;;;;76.23;36.53;;;3.70;99.90;;;;;;5077232;28;37842;-80
2020/12/28 06:32:48;;;;;;;67.83;35.10;;;3.70;99.90;;;;;;5071307;28;37346;-79
2020/12/28 06:35:18;;;;;;;64.83;34.67;;;3.70;99.90;;;;;;5080909;28;38084;-79
2020/12/28 06:37:48;;;;;;;72.70;36.37;;;3.80;99.90;;;;;;5081553;28;39370;-80
2020/12/28 06:40:29;;;;;;;72.27;36.67;;;3.80;99.90;;;;;;5084681;28;41837;-80
2020/12/28 06:43:25;;;;;;;68.77;35.00;;;3.80;99.90;;;;;;5079449;28;36206;-80
2020/12/28 06:45:54;;;;;;;66.07;33.90;;;3.80;99.90;;;;;;5064054;28;47381;-79
2020/12/28 06:48:25;;;;;;;66.90;32.57;;;3.90;99.90;;;;;;5075418;27;40301;-79
2020/12/28 06:50:55;;;;;;;74.63;34.17;;;3.90;99.90;;;;;;5099652;27;41224;-79
2020/12/28 06:53:25;;;;;;;67.80;33.57;;;3.90;99.90;;;;;;5074564;27;37369;-79
2020/12/28 06:55:54;;;;;;;74.80;35.77;;;3.90;99.90;;;;;;5072645;28;38772;-79
2020/12/28 06:58:21;;;;;;;64.53;33.13;;;4.00;99.90;;;;;;5063744;28;38966;-79
2020/12/28 07:00:57;;;;;;;70.27;32.77;;;4.00;99.90;;;;;;5076022;28;39841;-79
2020/12/28 07:03:24;;;;;;;68.43;34.07;;;4.00;99.90;;;;;;5071426;28;40212;-79
2020/12/28 07:06:05;;;;;;;74.80;35.23;;;4.00;99.90;;;;;;5071996;28;38600;-78
2020/12/28 07:08:39;;;;;;;61.77;32.93;;;4.00;99.90;;;;;;5056678;28;47550;-79
2020/12/28 07:11:06;;;;;;;70.87;33.80;;;4.00;99.90;;;;;;5067577;28;40159;-79
2020/12/28 07:13:32;;;;;;;75.80;34.50;;;4.00;99.90;;;;;;5070478;28;37847;-79
2020/12/28 07:16:06;;;;;;;51.00;28.43;;;4.00;99.90;;;;;;5069434;28;39022;-78
2020/12/28 07:18:33;;;;;;;50.63;27.83;;;3.90;99.90;;;;;;5059997;28;47517;-79
2020/12/28 07:21:01;;;;;;;60.70;28.70;;;3.80;99.90;;;;;;5072928;28;39286;-79
2020/12/28 07:23:28;;;;;;;54.80;27.77;;;3.70;99.90;;;;;;5069351;28;48256;-79
2020/12/28 07:26:10;;;;;;;47.77;26.87;;;3.70;99.90;;;;;;5066340;28;38637;-79
2020/12/28 07:28:38;;;;;;;44.47;24.93;;;3.60;99.90;;;;;;5069458;28;48631;-79
2020/12/28 07:31:09;;;;;;;55.77;26.47;;;3.60;99.90;;;;;;5071793;28;38706;-79
2020/12/28 07:33:45;;;;;;;50.87;24.73;;;3.60;99.90;;;;;;5061641;28;36869;-79
2020/12/28 07:36:13;;;;;;;51.70;24.80;;;3.50;99.90;;;;;;5068128;28;38027;-79
2020/12/28 07:38:42;;;;;;;57.37;24.40;;;3.50;99.90;;;;;;5078285;28;41003;-79
2020/12/28 07:41:19;;;;;;;48.03;24.67;;;3.50;99.90;;;;;;5069468;28;40269;-80
2020/12/28 07:43:58;;;;;;;44.07;22.47;;;3.50;99.90;;;;;;5065051;28;40035;-80
2020/12/28 07:46:28;;;;;;;38.67;21.50;;;3.50;99.90;;;;;;5081950;28;37958;-79
2020/12/28 07:48:58;;;;;;;45.53;22.53;;;3.40;99.90;;;;;;5078014;28;38087;-79
2020/12/28 07:51:25;;;;;;;54.47;24.53;;;3.40;99.90;;;;;;5068778;28;37921;-79
2020/12/28 07:54:08;;;;;;;38.43;20.87;;;3.50;99.90;;;;;;5070155;28;38078;-79
2020/12/28 07:56:50;;;;;;;39.63;22.70;;;3.60;99.90;;;;;;5060489;28;48685;-79
2020/12/28 07:59:32;;;;;;;43.20;21.60;;;3.60;99.90;;;;;;5065877;28;38893;-79
2020/12/28 08:02:07;;;;;;;35.17;18.65;;;3.70;99.90;;;;;;5061039;28;38180;-79
2020/12/28 08:04:34;;;;;;;33.17;19.50;;;3.70;99.90;;;;;;5070258;28;47868;-79
2020/12/28 08:07:00;;;;;;;37.20;18.27;;;3.80;99.90;;;;;;5080321;28;38298;-78
2020/12/28 08:09:28;;;;;;;29.93;17.27;;;3.80;99.90;;;;;;5065895;28;46842;-79
2020/12/28 08:11:59;;;;;;;29.03;16.77;;;3.80;99.90;;;;;;5065374;28;40080;-79
2020/12/28 08:14:26;;;;;;;29.17;16.10;;;3.80;99.90;;;;;;5067492;28;37032;-79
2020/12/28 08:16:52;;;;;;;19.80;13.50;;;3.80;99.90;;;;;;5068335;28;41487;-78
2020/12/28 08:19:28;;;;;;;27.67;14.00;;;3.80;99.90;;;;;;5057461;28;38810;-78
2020/12/28 08:21:55;;;;;;;26.47;12.63;;;3.90;99.90;;;;;;5066315;28;38480;-79
2020/12/28 08:24:28;;;;;;;28.10;15.57;;;3.90;99.90;;;;;;5053866;28;38079;-79
2020/12/28 08:26:54;;;;;;;21.43;11.07;;;3.90;99.90;;;;;;5078465;28;42201;-78
2020/12/28 08:29:20;;;;;;;24.50;11.30;;;3.90;99.90;;;;;;5059324;28;38608;-78
2020/12/28 08:31:46;;;;;;;19.67;9.87;;;3.90;99.90;;;;;;5072339;28;38439;-79
2020/12/28 08:34:16;;;;;;;16.80;10.17;;;3.90;99.90;;;;;;5074996;28;38456;-79
2020/12/28 08:36:51;;;;;;;21.93;9.87;;;4.00;99.90;;;;;;5086956;28;38337;-79
2020/12/28 08:39:19;;;;;;;22.53;11.00;;;4.00;99.90;;;;;;5075736;28;37651;-78
2020/12/28 08:41:51;;;;;;;18.93;10.00;;;4.00;99.90;;;;;;5079103;28;38242;-78
2020/12/28 08:44:24;;;;;;;18.50;10.07;;;4.00;99.90;;;;;;5069970;28;37448;-78
2020/12/28 08:46:51;;;;;;;20.87;9.80;;;4.10;99.90;;;;;;5073784;28;38301;-79
2020/12/28 08:49:37;;;;;;;28.50;12.40;;;4.10;99.90;;;;;;5070618;28;37713;-80
2020/12/28 08:52:10;;;;;;;25.70;11.73;;;4.10;99.90;;;;;;5074617;27;39063;-79
2020/12/28 08:54:39;;;;;;;19.03;10.63;;;4.10;99.90;;;;;;5073974;28;36761;-80
2020/12/28 08:57:05;;;;;;;28.30;10.90;;;4.10;99.90;;;;;;5078556;28;38999;-79
2020/12/28 08:59:32;;;;;;;21.17;11.47;;;4.10;99.90;;;;;;5070208;28;39699;-79
2020/12/28 09:01:58;;;;;;;21.73;11.13;;;4.10;99.90;;;;;;5070717;28;37662;-79
2020/12/28 09:04:25;;;;;;;27.57;12.67;;;4.10;99.90;;;;;;5075535;27;37271;-80
2020/12/28 09:06:51;;;;;;;22.70;11.90;;;4.20;99.90;;;;;;5066646;28;39290;-79
2020/12/28 09:09:19;;;;;;;26.07;12.80;;;4.20;99.90;;;;;;5057016;28;39649;-79
2020/12/28 09:11:45;;;;;;;20.30;10.60;;;4.20;99.90;;;;;;5069648;28;38679;-78
2020/12/28 09:14:12;;;;;;;25.93;11.80;;;4.20;99.90;;;;;;5069762;28;37570;-79
2020/12/28 09:16:40;;;;;;;20.97;10.93;;;4.20;99.90;;;;;;5076258;28;39475;-80
2020/12/28 09:19:06;;;;;;;25.53;10.47;;;4.30;99.90;;;;;;5074254;28;37548;-81
2020/12/28 09:21:42;;;;;;;21.77;11.27;;;4.30;99.90;;;;;;5070646;28;38364;-79
2020/12/28 09:24:08;;;;;;;23.87;11.37;;;4.30;99.90;;;;;;5065850;28;37307;-79
2020/12/28 09:26:35;;;;;;;19.30;10.23;;;4.40;99.90;;;;;;5081084;28;39736;-77
2020/12/28 09:29:01;;;;;;;22.37;10.50;;;4.40;99.90;;;;;;5099004;28;39067;-79
2020/12/28 09:31:27;;;;;;;21.07;11.20;;;4.40;99.90;;;;;;5065221;28;38548;-80
2020/12/28 09:33:59;;;;;;;24.23;10.33;;;4.50;99.90;;;;;;5078408;28;38379;-80
2020/12/28 09:36:25;;;;;;;18.43;9.57;;;4.50;99.90;;;;;;5084544;28;39361;-78
2020/12/28 09:38:54;;;;;;;19.43;9.73;;;4.60;99.90;;;;;;5066184;28;39379;-77
2020/12/28 09:41:20;;;;;;;26.30;10.23;;;4.60;99.90;;;;;;5078292;28;38998;-79
2020/12/28 09:43:47;;;;;;;16.40;9.43;;;4.60;99.90;;;;;;5058410;28;37479;-78
2020/12/28 09:46:19;;;;;;;20.73;9.00;;;4.70;99.90;;;;;;5064295;28;38359;-78
2020/12/28 09:48:47;;;;;;;19.00;8.98;;;4.70;99.90;;;;;;5064374;28;38437;-79
2020/12/28 09:51:13;;;;;;;26.47;12.93;;;4.70;99.90;;;;;;5050866;28;39136;-77
2020/12/28 09:53:40;;;;;;;20.00;8.83;;;4.70;99.90;;;;;;5072364;28;37120;-76
2020/12/28 09:56:06;;;;;;;21.03;9.80;;;4.80;99.90;;;;;;5055697;28;37632;-76
2020/12/28 09:58:33;;;;;;;11.43;6.90;;;4.80;99.90;;;;;;5059897;28;38723;-76
2020/12/28 10:01:00;;;;;;;17.07;6.77;;;4.80;99.90;;;;;;5064379;28;39330;-76
2020/12/28 10:03:27;;;;;;;15.97;7.17;;;4.80;99.90;;;;;;5070009;28;37222;-76
2020/12/28 10:05:53;;;;;;;21.53;7.20;;;4.90;99.90;;;;;;5063272;28;39382;-76
2020/12/28 10:08:22;;;;;;;15.57;6.23;;;4.90;99.90;;;;;;5080031;28;42150;-74
2020/12/28 10:10:49;;;;;;;13.27;6.53;;;5.00;99.90;;;;;;5057646;28;39445;-77
2020/12/28 10:13:15;;;;;;;14.40;7.00;;;5.00;99.90;;;;;;5065164;28;37131;-76
2020/12/28 10:15:47;;;;;;;18.83;6.17;;;5.10;99.90;;;;;;5070732;28;40348;-79
2020/12/28 10:18:22;;;;;;;12.27;6.30;;;5.10;99.90;;;;;;5067829;28;40380;-76
2020/12/28 10:20:48;;;;;;;17.20;7.80;;;5.10;99.90;;;;;;5068952;28;39179;-77
2020/12/28 10:23:15;;;;;;;16.47;7.07;;;5.10;99.90;;;;;;5050909;28;37455;-75
2020/12/28 10:25:41;;;;;;;23.30;8.60;;;5.10;99.90;;;;;;5083993;28;38254;-77
2020/12/28 10:28:07;;;;;;;14.60;7.40;;;5.10;99.90;;;;;;5062773;28;38861;-77
2020/12/28 10:30:33;;;;;;;13.97;7.20;;;5.20;99.90;;;;;;5066313;28;38541;-76
2020/12/28 10:32:59;;;;;;;18.13;7.40;;;5.20;99.90;;;;;;5050114;28;38160;-77
2020/12/28 10:35:26;;;;;;;16.57;7.40;;;5.20;99.90;;;;;;5052265;28;37828;-76
2020/12/28 10:37:52;;;;;;;12.63;6.33;;;5.20;99.90;;;;;;5055159;28;38930;-76
2020/12/28 10:40:18;;;;;;;14.03;6.60;;;5.30;99.90;;;;;;5050209;28;38520;-76
2020/12/28 10:42:44;;;;;;;16.53;7.23;;;5.30;99.90;;;;;;5063540;28;36623;-76
2020/12/28 10:45:10;;;;;;;15.13;5.53;;;5.30;99.90;;;;;;5051824;28;38111;-76
2020/12/28 10:47:36;;;;;;;16.30;4.90;;;5.30;99.90;;;;;;5067850;28;39022;-77
2020/12/28 10:50:03;;;;;;;14.23;5.07;;;5.30;99.90;;;;;;5061407;28;37551;-76
2020/12/28 10:52:29;;;;;;;12.83;4.73;;;5.20;99.90;;;;;;5057622;28;36430;-76
2020/12/28 10:54:55;;;;;;;12.73;4.33;;;5.20;99.90;;;;;;5080878;28;38818;-76
2020/12/28 10:57:21;;;;;;;12.33;4.37;;;5.20;99.90;;;;;;5060031;28;37825;-76
2020/12/28 10:59:47;;;;;;;9.63;3.93;;;5.30;99.90;;;;;;5060314;28;38152;-76
2020/12/28 11:02:13;;;;;;;9.37;4.40;;;5.30;99.90;;;;;;5063681;28;38540;-76
2020/12/28 11:04:39;;;;;;;11.10;4.20;;;5.40;99.90;;;;;;5066450;28;37562;-76
2020/12/28 11:07:05;;;;;;;10.37;3.43;;;5.40;99.90;;;;;;5066476;28;38370;-76
2020/12/28 11:09:32;;;;;;;16.23;4.67;;;5.40;99.90;;;;;;5061097;28;37221;-77
2020/12/28 11:11:58;;;;;;;14.50;3.87;;;5.40;99.90;;;;;;5076853;28;36636;-77
2020/12/28 11:14:24;;;;;;;11.33;3.77;;;5.40;99.90;;;;;;5062310;28;40385;-76
2020/12/28 11:16:50;;;;;;;8.20;3.93;;;5.50;99.90;;;;;;5057150;28;38896;-76
2020/12/28 11:19:16;;;;;;;12.83;4.23;;;5.50;99.90;;;;;;5060471;28;37449;-76
2020/12/28 11:21:45;;;;;;;10.60;4.00;;;5.50;99.90;;;;;;5057565;28;36076;-77
2020/12/28 11:24:12;;;;;;;12.80;3.43;;;5.50;99.90;;;;;;5066293;28;39452;-76
2020/12/28 11:26:38;;;;;;;11.87;3.23;;;5.40;99.90;;;;;;5062725;28;38250;-76
2020/12/28 11:29:05;;;;;;;13.23;3.53;;;5.40;99.90;;;;;;5057520;28;38896;-76
2020/12/28 11:31:32;;;;;;;10.33;3.93;;;5.40;99.90;;;;;;5060984;28;47429;-76
2020/12/28 11:33:58;;;;;;;14.57;3.50;;;5.50;99.90;;;;;;5060926;28;39199;-78
2020/12/28 11:36:24;;;;;;;7.70;3.07;;;5.50;99.90;;;;;;5063350;28;39750;-77
2020/12/28 11:38:50;;;;;;;11.03;3.50;;;5.60;99.90;;;;;;5060026;28;39426;-77
2020/12/28 11:41:17;;;;;;;8.63;3.43;;;5.60;99.90;;;;;;5075108;28;34732;-77
2020/12/28 11:43:44;;;;;;;8.27;3.13;;;5.60;99.90;;;;;;5060835;28;37752;-77
2020/12/28 11:46:12;;;;;;;8.67;3.90;;;5.60;99.90;;;;;;5054348;28;38732;-77
2020/12/28 11:48:39;;;;;;;10.73;3.30;;;5.60;99.90;;;;;;5055615;28;37457;-76
2020/12/28 11:51:07;;;;;;;12.57;3.23;;;5.60;99.90;;;;;;5055528;28;37254;-76
2020/12/28 11:53:34;;;;;;;8.70;3.17;;;5.60;99.90;;;;;;5056546;28;38402;-76
2020/12/28 11:56:03;;;;;;;8.93;3.00;;;5.60;99.90;;;;;;5060039;28;39246;-76
2020/12/28 11:58:34;;;;;;;12.27;4.07;;;5.60;99.90;;;;;;5054065;28;47550;-75
2020/12/28 12:01:02;;;;;;;5.43;2.47;;;5.60;99.90;;;;;;5053435;28;36206;-77
2020/12/28 12:03:28;;;;;;;6.10;2.43;;;5.60;99.90;;;;;;5059562;28;47584;-78
2020/12/28 12:05:56;;;;;;;6.90;2.53;;;5.60;99.90;;;;;;5060781;28;38715;-77
2020/12/28 12:08:22;;;;;;;7.73;2.13;;;5.60;99.90;;;;;;5065751;28;38891;-78
2020/12/28 12:10:50;;;;;;;8.57;2.60;;;5.60;99.90;;;;;;5058280;28;36922;-76
2020/12/28 12:13:17;;;;;;;8.93;2.73;;;5.70;99.90;;;;;;5059597;28;38127;-78
2020/12/28 12:15:47;;;;;;;8.97;4.17;;;5.70;99.90;;;;;;5064277;28;39391;-77
2020/12/28 12:18:16;;;;;;;12.83;3.00;;;5.70;99.90;;;;;;5061454;28;38133;-76
2020/12/28 12:20:43;;;;;;;11.13;3.23;;;5.70;99.90;;;;;;5075409;28;36722;-78
2020/12/28 12:23:12;;;;;;;7.57;2.90;;;5.60;99.90;;;;;;5066050;28;40186;-79
2020/12/28 12:25:38;;;;;;;9.03;3.03;;;5.50;99.90;;;;;;5066500;28;38705;-77
2020/12/28 12:28:04;;;;;;;10.23;2.50;;;5.40;99.90;;;;;;5062536;28;38575;-76
2020/12/28 12:30:30;;;;;;;7.43;2.57;;;5.40;99.90;;;;;;5061961;28;37255;-77
2020/12/28 12:32:59;;;;;;;8.57;2.20;;;5.40;99.90;;;;;;5065193;28;39529;-77
2020/12/28 12:35:26;;;;;;;8.27;2.30;;;5.30;99.90;;;;;;5063552;28;40442;-77
2020/12/28 12:37:52;;;;;;;5.60;2.23;;;5.30;99.90;;;;;;5062851;28;37100;-77
2020/12/28 12:40:18;;;;;;;9.87;2.70;;;5.40;99.90;;;;;;5062722;28;37266;-79
2020/12/28 12:42:44;;;;;;;7.80;2.23;;;5.40;99.90;;;;;;5060003;28;37891;-76
2020/12/28 12:45:10;;;;;;;8.50;2.77;;;5.50;99.90;;;;;;5064343;28;39898;-76